Hakuhomaru — JJ4011 — position and weather

sailwx.info

Track history (hours):
 
Tides and Currents Weather Stations Pressure Air Temp Water Temp Dewpoint Dewpoint Depression Visibility Wind Speed Wind Dir Waves Ship Positions

Hakuhomaru

Last reported at 2015-Mar-30 06:33 UTC. Time now 2015-Mar-30 07:08 UTC.
Position N 34°33' E 135°25'.

Length 38 m; draft 3.3 m.

Type: Tug. MMSI: 431401584.

Date/timePositionNaut miles runAvg speedWind from/ knotsBaromVisibWave heightAir tempDewpointWater temp
2015-Mar-30 06:33N 34°33' E 135°25'3 1.3
2015-Mar-30 04:33N 34°34' E 135°22'3 3.3
2015-Mar-30 03:33N 34°33' E 135°26'1 0.5
2015-Mar-30 02:33N 34°33' E 135°27'2 1.3
2015-Mar-30 01:05N 34°34' E 135°24'4 2.8
2015-Mar-29 23:33N 34°33' E 135°19'5 5.1
2015-Mar-29 22:33N 34°38' E 135°16'4 4.2
2015-Mar-29 21:33N 34°41' E 135°12'0 0.0
2015-Mar-29 20:33N 34°41' E 135°12'  
2015-Mar-26 23:07N 34°41' E 135°12'2 3.0
2015-Mar-26 22:33N 34°40' E 135°14'2 1.8
2015-Mar-26 21:33N 34°39' E 135°16'3 3.3
2015-Mar-26 20:33N 34°41' E 135°13'1 0.7
2015-Mar-26 19:33N 34°41' E 135°12'0 0.0
2015-Mar-26 18:33N 34°41' E 135°12'0 0.0
2015-Mar-26 17:33N 34°41' E 135°12'0 0.0
2015-Mar-26 16:33N 34°41' E 135°12'3 2.8
2015-Mar-26 15:33N 34°39' E 135°15'1 0.6
2015-Mar-26 14:33N 34°40' E 135°15'1 0.8
2015-Mar-26 13:33N 34°40' E 135°14'3 2.5
2015-Mar-26 12:33N 34°41' E 135°17'1 0.9
2015-Mar-26 11:33N 34°41' E 135°17'4 4.3
2015-Mar-26 10:33N 34°41' E 135°12'0 0.0
2015-Mar-26 09:33N 34°41' E 135°12'0 0.0
2015-Mar-26 08:33N 34°41' E 135°12'1 0.8
2015-Mar-26 07:33N 34°41' E 135°13'2 1.9
2015-Mar-26 06:33N 34°40' E 135°15'0 0.0
2015-Mar-26 05:33N 34°40' E 135°15'1 0.9
2015-Mar-26 04:33N 34°40' E 135°14'1 1.4
2015-Mar-26 03:33N 34°41' E 135°12'0 0.0
2015-Mar-26 02:33N 34°41' E 135°12'0 0.0
2015-Mar-26 01:33N 34°41' E 135°12'0 0.0
2015-Mar-26 00:33N 34°41' E 135°12'2 2.4
2015-Mar-25 23:33N 34°39' E 135°15'1 0.8
2015-Mar-25 22:33N 34°40' E 135°14'2 1.7
2015-Mar-25 21:33N 34°40' E 135°12'1 0.7
2015-Mar-25 20:33N 34°41' E 135°12'0 0.0
2015-Mar-25 09:33N 34°41' E 135°12'3 3.3
2015-Mar-25 08:33N 34°39' E 135°16'1 0.9
2015-Mar-25 07:33N 34°39' E 135°15'2 2.5
2015-Mar-25 06:33N 34°41' E 135°12'0 0.1
2015-Mar-25 05:33N 34°41' E 135°12'0 0.0
2015-Mar-25 04:33N 34°41' E 135°12'4 3.9
2015-Mar-25 03:33N 34°41' E 135°17'1 0.6
2015-Mar-25 02:33N 34°40' E 135°18'4 4.4
2015-Mar-25 01:33N 34°41' E 135°12'0 0.0
2015-Mar-25 00:33N 34°41' E 135°12'2 1.5
2015-Mar-24 23:33N 34°41' E 135°14'3 2.9
2015-Mar-24 22:32N 34°39' E 135°17'4 4.0
2015-Mar-24 21:33N 34°40' E 135°12'1 0.7
2015-Mar-24 20:33N 34°41' E 135°12'1 0.1
2015-Mar-24 06:33N 34°41' E 135°13'1 0.9
2015-Mar-24 05:33N 34°41' E 135°12'0 0.0
2015-Mar-24 04:34N 34°41' E 135°12'0 0.0
2015-Mar-24 03:33N 34°41' E 135°12'0 0.0
2015-Mar-24 02:33N 34°41' E 135°12'1 0.9
2015-Mar-24 01:34N 34°40' E 135°12'1 0.7
2015-Mar-24 00:33N 34°40' E 135°12'1 1.3
2015-Mar-23 23:33N 34°41' E 135°13'4 3.6
2015-Mar-23 22:33N 34°41' E 135°17'2 2.2
2015-Mar-23 21:33N 34°41' E 135°15'2 2.1
2015-Mar-23 20:33N 34°41' E 135°12'0 0.0
2015-Mar-23 01:18N 34°41' E 135°12'0 0.0
2015-Mar-23 00:33N 34°41' E 135°12'1 0.8
2015-Mar-22 23:33N 34°41' E 135°13'4 3.9
2015-Mar-22 22:33N 34°42' E 135°18'2 2.1
2015-Mar-22 21:33N 34°40' E 135°16'3 2.7
2015-Mar-22 20:33N 34°41' E 135°12'0 0.0
2015-Mar-22 19:33N 34°41' E 135°12'0 0.0
2015-Mar-22 18:33N 34°41' E 135°12'0 0.0
2015-Mar-22 17:33N 34°41' E 135°12'0 0.0
2015-Mar-22 05:33N 34°41' E 135°12'0 0.0
2015-Mar-22 04:33N 34°41' E 135°12'0 0.0
2015-Mar-22 03:33N 34°41' E 135°12'0 0.0
2015-Mar-22 02:33N 34°41' E 135°12'2 2.0
2015-Mar-22 01:33N 34°40' E 135°15'0 0.5
2015-Mar-22 00:33N 34°40' E 135°15'2 2.0
2015-Mar-21 23:33N 34°42' E 135°15'2 2.0
2015-Mar-21 22:33N 34°40' E 135°15'2 2.1
2015-Mar-21 21:33N 34°41' E 135°13'1 0.6
2015-Mar-21 20:33N 34°41' E 135°12'0 0.0
2015-Mar-21 09:28N 34°41' E 135°12'1 1.3
2015-Mar-21 08:33N 34°40' E 135°14'1 1.2
2015-Mar-21 07:33N 34°41' E 135°12'0 0.0
2015-Mar-21 06:33N 34°41' E 135°12'0 0.0
2015-Mar-21 05:34N 34°41' E 135°12'0 0.0
2015-Mar-21 04:34N 34°41' E 135°12'0 0.0
2015-Mar-21 03:34N 34°41' E 135°12'0 0.0
2015-Mar-21 02:33N 34°41' E 135°12'0 0.0
2015-Mar-21 01:34N 34°41' E 135°12'0 0.0
2015-Mar-21 00:34N 34°41' E 135°12'0 0.0
2015-Mar-20 23:34N 34°41' E 135°12'3 2.9
2015-Mar-20 22:33N 34°41' E 135°16'1 1.0
2015-Mar-20 21:34N 34°41' E 135°15'2 0.3
2015-Mar-20 15:32N 34°41' E 135°12'1 1.1
2015-Mar-20 14:33N 34°41' E 135°13'1 1.1
2015-Mar-20 13:33N 34°41' E 135°12'0 0.0
2015-Mar-20 12:33N 34°41' E 135°12'0 0.0
2015-Mar-20 11:33N 34°41' E 135°12'0 0.0
2015-Mar-20 10:33N 34°41' E 135°12'0 0.0
2015-Mar-20 09:33N 34°41' E 135°12'1 0.9
2015-Mar-20 08:33N 34°41' E 135°13'2 2.0
2015-Mar-20 07:33N 34°39' E 135°15'2 2.3
2015-Mar-20 06:33N 34°41' E 135°12'  
Track history (hours):
 
Tides and Currents Weather Stations Pressure Air Temp Water Temp Dewpoint Dewpoint Depression Visibility Wind Speed Wind Dir Waves Ship Positions

Hakuhomaru

Last reported at 2015-Mar-30 06:33 UTC. Time now 2015-Mar-30 07:08 UTC.
Position N 34°33' E 135°25'.

Length 38 m; draft 3.3 m.

Type: Tug. MMSI: 431401584.

Date/timePositionNaut miles runAvg speedWind from/ knotsBaromVisibWave heightAir tempDewpointWater temp
2015-Mar-30 06:33N 34°33' E 135°25'3 1.3
2015-Mar-30 04:33N 34°34' E 135°22'3 3.3
2015-Mar-30 03:33N 34°33' E 135°26'1 0.5
2015-Mar-30 02:33N 34°33' E 135°27'2 1.3
2015-Mar-30 01:05N 34°34' E 135°24'4 2.8
2015-Mar-29 23:33N 34°33' E 135°19'5 5.1
2015-Mar-29 22:33N 34°38' E 135°16'4 4.2
2015-Mar-29 21:33N 34°41' E 135°12'0 0.0
2015-Mar-29 20:33N 34°41' E 135°12'  
2015-Mar-26 23:07N 34°41' E 135°12'2 3.0
2015-Mar-26 22:33N 34°40' E 135°14'2 1.8
2015-Mar-26 21:33N 34°39' E 135°16'3 3.3
2015-Mar-26 20:33N 34°41' E 135°13'1 0.7
2015-Mar-26 19:33N 34°41' E 135°12'0 0.0
2015-Mar-26 18:33N 34°41' E 135°12'0 0.0
2015-Mar-26 17:33N 34°41' E 135°12'0 0.0
2015-Mar-26 16:33N 34°41' E 135°12'3 2.8
2015-Mar-26 15:33N 34°39' E 135°15'1 0.6
2015-Mar-26 14:33N 34°40' E 135°15'1 0.8
2015-Mar-26 13:33N 34°40' E 135°14'3 2.5
2015-Mar-26 12:33N 34°41' E 135°17'1 0.9
2015-Mar-26 11:33N 34°41' E 135°17'4 4.3
2015-Mar-26 10:33N 34°41' E 135°12'0 0.0
2015-Mar-26 09:33N 34°41' E 135°12'0 0.0
2015-Mar-26 08:33N 34°41' E 135°12'1 0.8
2015-Mar-26 07:33N 34°41' E 135°13'2 1.9
2015-Mar-26 06:33N 34°40' E 135°15'0 0.0
2015-Mar-26 05:33N 34°40' E 135°15'1 0.9
2015-Mar-26 04:33N 34°40' E 135°14'1 1.4
2015-Mar-26 03:33N 34°41' E 135°12'0 0.0
2015-Mar-26 02:33N 34°41' E 135°12'0 0.0
2015-Mar-26 01:33N 34°41' E 135°12'0 0.0
2015-Mar-26 00:33N 34°41' E 135°12'2 2.4
2015-Mar-25 23:33N 34°39' E 135°15'1 0.8
2015-Mar-25 22:33N 34°40' E 135°14'2 1.7
2015-Mar-25 21:33N 34°40' E 135°12'1 0.7
2015-Mar-25 20:33N 34°41' E 135°12'0 0.0
2015-Mar-25 09:33N 34°41' E 135°12'3 3.3
2015-Mar-25 08:33N 34°39' E 135°16'1 0.9
2015-Mar-25 07:33N 34°39' E 135°15'2 2.5
2015-Mar-25 06:33N 34°41' E 135°12'0 0.1
2015-Mar-25 05:33N 34°41' E 135°12'0 0.0
2015-Mar-25 04:33N 34°41' E 135°12'4 3.9
2015-Mar-25 03:33N 34°41' E 135°17'1 0.6
2015-Mar-25 02:33N 34°40' E 135°18'4 4.4
2015-Mar-25 01:33N 34°41' E 135°12'0 0.0
2015-Mar-25 00:33N 34°41' E 135°12'2 1.5
2015-Mar-24 23:33N 34°41' E 135°14'3 2.9
2015-Mar-24 22:32N 34°39' E 135°17'4 4.0
2015-Mar-24 21:33N 34°40' E 135°12'1 0.7
2015-Mar-24 20:33N 34°41' E 135°12'1 0.1
2015-Mar-24 06:33N 34°41' E 135°13'1 0.9
2015-Mar-24 05:33N 34°41' E 135°12'0 0.0
2015-Mar-24 04:34N 34°41' E 135°12'0 0.0
2015-Mar-24 03:33N 34°41' E 135°12'0 0.0
2015-Mar-24 02:33N 34°41' E 135°12'1 0.9
2015-Mar-24 01:34N 34°40' E 135°12'1 0.7
2015-Mar-24 00:33N 34°40' E 135°12'1 1.3
2015-Mar-23 23:33N 34°41' E 135°13'4 3.6
2015-Mar-23 22:33N 34°41' E 135°17'2 2.2
2015-Mar-23 21:33N 34°41' E 135°15'2 2.1
2015-Mar-23 20:33N 34°41' E 135°12'0 0.0
2015-Mar-23 01:18N 34°41' E 135°12'0 0.0
2015-Mar-23 00:33N 34°41' E 135°12'1 0.8
2015-Mar-22 23:33N 34°41' E 135°13'4 3.9
2015-Mar-22 22:33N 34°42' E 135°18'2 2.1
2015-Mar-22 21:33N 34°40' E 135°16'3 2.7
2015-Mar-22 20:33N 34°41' E 135°12'0 0.0
2015-Mar-22 19:33N 34°41' E 135°12'0 0.0
2015-Mar-22 18:33N 34°41' E 135°12'0 0.0
2015-Mar-22 17:33N 34°41' E 135°12'0 0.0
2015-Mar-22 05:33N 34°41' E 135°12'0 0.0
2015-Mar-22 04:33N 34°41' E 135°12'0 0.0
2015-Mar-22 03:33N 34°41' E 135°12'0 0.0
2015-Mar-22 02:33N 34°41' E 135°12'2 2.0
2015-Mar-22 01:33N 34°40' E 135°15'0 0.5
2015-Mar-22 00:33N 34°40' E 135°15'2 2.0
2015-Mar-21 23:33N 34°42' E 135°15'2 2.0
2015-Mar-21 22:33N 34°40' E 135°15'2 2.1
2015-Mar-21 21:33N 34°41' E 135°13'1 0.6
2015-Mar-21 20:33N 34°41' E 135°12'0 0.0
2015-Mar-21 09:28N 34°41' E 135°12'1 1.3
2015-Mar-21 08:33N 34°40' E 135°14'1 1.2
2015-Mar-21 07:33N 34°41' E 135°12'0 0.0
2015-Mar-21 06:33N 34°41' E 135°12'0 0.0
2015-Mar-21 05:34N 34°41' E 135°12'0 0.0
2015-Mar-21 04:34N 34°41' E 135°12'0 0.0
2015-Mar-21 03:34N 34°41' E 135°12'0 0.0
2015-Mar-21 02:33N 34°41' E 135°12'0 0.0
2015-Mar-21 01:34N 34°41' E 135°12'0 0.0
2015-Mar-21 00:34N 34°41' E 135°12'0 0.0
2015-Mar-20 23:34N 34°41' E 135°12'3 2.9
2015-Mar-20 22:33N 34°41' E 135°16'1 1.0
2015-Mar-20 21:34N 34°41' E 135°15'2 0.3
2015-Mar-20 15:32N 34°41' E 135°12'1 1.1
2015-Mar-20 14:33N 34°41' E 135°13'1 1.1
2015-Mar-20 13:33N 34°41' E 135°12'0 0.0
2015-Mar-20 12:33N 34°41' E 135°12'0 0.0
2015-Mar-20 11:33N 34°41' E 135°12'0 0.0
2015-Mar-20 10:33N 34°41' E 135°12'0 0.0
2015-Mar-20 09:33N 34°41' E 135°12'1 0.9
2015-Mar-20 08:33N 34°41' E 135°13'2 2.0
2015-Mar-20 07:33N 34°39' E 135°15'2 2.3
2015-Mar-20 06:33N 34°41' E 135°12'  

Dump ship's entire track history